sensor_id;sensor_type;location;lat;lon;timestamp;P1;durP1;ratioP1;P2;durP2;ratioP2
63005;SDS011;53704;52.532;6.426;2022-08-19T00:01:34;11.25;;;10.05;;
63005;SDS011;53704;52.532;6.426;2022-08-19T00:04:02;10.43;;;9.02;;
63005;SDS011;53704;52.532;6.426;2022-08-19T00:06:29;12.05;;;10.20;;
63005;SDS011;53704;52.532;6.426;2022-08-19T00:08:55;10.48;;;9.57;;
63005;SDS011;53704;52.532;6.426;2022-08-19T00:11:22;12.77;;;10.73;;
63005;SDS011;53704;52.532;6.426;2022-08-19T00:13:48;10.45;;;9.13;;
63005;SDS011;53704;52.532;6.426;2022-08-19T00:16:15;11.82;;;9.95;;
63005;SDS011;53704;52.532;6.426;2022-08-19T00:18:44;10.98;;;9.85;;
63005;SDS011;53704;52.532;6.426;2022-08-19T00:21:09;10.07;;;9.18;;
63005;SDS011;53704;52.532;6.426;2022-08-19T00:23:35;10.65;;;9.73;;
63005;SDS011;53704;52.532;6.426;2022-08-19T00:26:05;10.93;;;9.85;;
63005;SDS011;53704;52.532;6.426;2022-08-19T00:28:32;14.48;;;10.40;;
63005;SDS011;53704;52.532;6.426;2022-08-19T00:30:58;10.93;;;10.07;;
63005;SDS011;53704;52.532;6.426;2022-08-19T00:33:24;12.07;;;10.05;;
63005;SDS011;53704;52.532;6.426;2022-08-19T00:35:49;10.55;;;9.70;;
63005;SDS011;53704;52.532;6.426;2022-08-19T00:38:15;10.93;;;10.00;;
63005;SDS011;53704;52.532;6.426;2022-08-19T00:40:42;19.38;;;11.35;;
63005;SDS011;53704;52.532;6.426;2022-08-19T00:43:10;11.57;;;10.55;;
63005;SDS011;53704;52.532;6.426;2022-08-19T00:45:38;11.18;;;10.40;;
63005;SDS011;53704;52.532;6.426;2022-08-19T00:48:06;13.60;;;10.48;;
63005;SDS011;53704;52.532;6.426;2022-08-19T00:50:32;12.20;;;11.05;;
63005;SDS011;53704;52.532;6.426;2022-08-19T00:52:59;11.55;;;10.70;;
63005;SDS011;53704;52.532;6.426;2022-08-19T00:55:26;10.93;;;10.02;;
63005;SDS011;53704;52.532;6.426;2022-08-19T00:58:04;12.23;;;10.98;;
63005;SDS011;53704;52.532;6.426;2022-08-19T01:00:33;12.52;;;10.85;;
63005;SDS011;53704;52.532;6.426;2022-08-19T01:03:02;11.70;;;10.65;;
63005;SDS011;53704;52.532;6.426;2022-08-19T01:05:32;10.98;;;10.07;;
63005;SDS011;53704;52.532;6.426;2022-08-19T01:07:58;11.23;;;10.02;;
63005;SDS011;53704;52.532;6.426;2022-08-19T01:10:27;12.18;;;10.98;;
63005;SDS011;53704;52.532;6.426;2022-08-19T01:12:57;14.18;;;10.45;;
63005;SDS011;53704;52.532;6.426;2022-08-19T01:15:24;12.35;;;11.27;;
63005;SDS011;53704;52.532;6.426;2022-08-19T01:17:54;12.45;;;10.90;;
63005;SDS011;53704;52.532;6.426;2022-08-19T01:20:22;13.18;;;10.48;;
63005;SDS011;53704;52.532;6.426;2022-08-19T01:22:49;11.98;;;10.90;;
63005;SDS011;53704;52.532;6.426;2022-08-19T01:25:19;11.23;;;10.32;;
63005;SDS011;53704;52.532;6.426;2022-08-19T01:27:48;10.77;;;9.75;;
63005;SDS011;53704;52.532;6.426;2022-08-19T01:30:19;10.05;;;9.35;;
63005;SDS011;53704;52.532;6.426;2022-08-19T01:32:49;12.20;;;9.52;;
63005;SDS011;53704;52.532;6.426;2022-08-19T01:35:15;12.27;;;11.05;;
63005;SDS011;53704;52.532;6.426;2022-08-19T01:37:53;11.13;;;9.95;;
63005;SDS011;53704;52.532;6.426;2022-08-19T01:40:22;12.95;;;11.07;;
63005;SDS011;53704;52.532;6.426;2022-08-19T01:42:49;9.88;;;9.15;;
63005;SDS011;53704;52.532;6.426;2022-08-19T01:45:16;10.30;;;9.40;;
63005;SDS011;53704;52.532;6.426;2022-08-19T01:47:42;13.00;;;10.32;;
63005;SDS011;53704;52.532;6.426;2022-08-19T01:50:09;11.07;;;10.05;;
63005;SDS011;53704;52.532;6.426;2022-08-19T01:52:36;10.45;;;9.60;;
63005;SDS011;53704;52.532;6.426;2022-08-19T01:55:03;11.43;;;10.27;;
63005;SDS011;53704;52.532;6.426;2022-08-19T01:57:30;11.63;;;10.45;;
63005;SDS011;53704;52.532;6.426;2022-08-19T01:59:56;11.98;;;10.77;;
63005;SDS011;53704;52.532;6.426;2022-08-19T02:02:21;14.10;;;10.73;;
63005;SDS011;53704;52.532;6.426;2022-08-19T02:04:48;11.35;;;10.10;;
63005;SDS011;53704;52.532;6.426;2022-08-19T02:07:13;10.98;;;9.90;;
63005;SDS011;53704;52.532;6.426;2022-08-19T02:09:39;11.50;;;10.40;;
63005;SDS011;53704;52.532;6.426;2022-08-19T02:12:05;14.73;;;10.45;;
63005;SDS011;53704;52.532;6.426;2022-08-19T02:14:33;12.48;;;11.25;;
63005;SDS011;53704;52.532;6.426;2022-08-19T02:17:00;11.90;;;10.85;;
63005;SDS011;53704;52.532;6.426;2022-08-19T02:19:26;14.00;;;10.65;;
63005;SDS011;53704;52.532;6.426;2022-08-19T02:21:51;12.93;;;11.68;;
63005;SDS011;53704;52.532;6.426;2022-08-19T02:24:17;12.68;;;11.38;;
63005;SDS011;53704;52.532;6.426;2022-08-19T02:26:42;14.93;;;11.57;;
63005;SDS011;53704;52.532;6.426;2022-08-19T02:29:08;12.70;;;11.70;;
63005;SDS011;53704;52.532;6.426;2022-08-19T02:31:33;12.13;;;11.13;;
63005;SDS011;53704;52.532;6.426;2022-08-19T02:33:59;13.00;;;11.68;;
63005;SDS011;53704;52.532;6.426;2022-08-19T02:36:24;10.82;;;10.02;;
63005;SDS011;53704;52.532;6.426;2022-08-19T02:38:50;16.25;;;11.18;;
63005;SDS011;53704;52.532;6.426;2022-08-19T02:41:17;14.43;;;11.95;;
63005;SDS011;53704;52.532;6.426;2022-08-19T02:43:45;12.85;;;11.73;;
63005;SDS011;53704;52.532;6.426;2022-08-19T02:46:12;13.23;;;12.10;;
63005;SDS011;53704;52.532;6.426;2022-08-19T02:48:38;14.20;;;12.68;;
63005;SDS011;53704;52.532;6.426;2022-08-19T02:51:04;12.80;;;11.65;;
63005;SDS011;53704;52.532;6.426;2022-08-19T02:53:30;13.48;;;12.07;;
63005;SDS011;53704;52.532;6.426;2022-08-19T02:55:56;14.13;;;12.00;;
63005;SDS011;53704;52.532;6.426;2022-08-19T02:58:22;17.90;;;12.07;;
63005;SDS011;53704;52.532;6.426;2022-08-19T03:00:50;12.10;;;11.18;;
63005;SDS011;53704;52.532;6.426;2022-08-19T03:03:18;13.23;;;12.07;;
63005;SDS011;53704;52.532;6.426;2022-08-19T03:05:44;17.27;;;12.68;;
63005;SDS011;53704;52.532;6.426;2022-08-19T03:08:10;15.27;;;13.80;;
63005;SDS011;53704;52.532;6.426;2022-08-19T03:10:46;14.38;;;13.00;;
63005;SDS011;53704;52.532;6.426;2022-08-19T03:13:13;19.45;;;14.40;;
63005;SDS011;53704;52.532;6.426;2022-08-19T03:15:41;15.52;;;13.88;;
63005;SDS011;53704;52.532;6.426;2022-08-19T03:18:10;14.45;;;13.05;;
63005;SDS011;53704;52.532;6.426;2022-08-19T03:20:43;14.20;;;12.90;;
63005;SDS011;53704;52.532;6.426;2022-08-19T03:23:10;13.32;;;11.98;;
63005;SDS011;53704;52.532;6.426;2022-08-19T03:25:41;16.00;;;12.93;;
63005;SDS011;53704;52.532;6.426;2022-08-19T03:28:12;13.45;;;12.07;;
63005;SDS011;53704;52.532;6.426;2022-08-19T03:30:40;15.45;;;13.50;;
63005;SDS011;53704;52.532;6.426;2022-08-19T03:33:08;14.90;;;13.25;;
63005;SDS011;53704;52.532;6.426;2022-08-19T03:35:34;15.27;;;13.68;;
63005;SDS011;53704;52.532;6.426;2022-08-19T03:38:04;17.17;;;13.02;;
63005;SDS011;53704;52.532;6.426;2022-08-19T03:40:31;17.23;;;12.90;;
63005;SDS011;53704;52.532;6.426;2022-08-19T03:42:57;15.27;;;13.23;;
63005;SDS011;53704;52.532;6.426;2022-08-19T03:45:23;15.38;;;13.73;;
63005;SDS011;53704;52.532;6.426;2022-08-19T03:47:48;14.48;;;13.05;;
63005;SDS011;53704;52.532;6.426;2022-08-19T03:50:14;15.93;;;14.18;;
63005;SDS011;53704;52.532;6.426;2022-08-19T03:52:41;18.50;;;13.70;;
63005;SDS011;53704;52.532;6.426;2022-08-19T03:55:07;13.85;;;12.55;;
63005;SDS011;53704;52.532;6.426;2022-08-19T03:57:33;12.95;;;11.85;;
63005;SDS011;53704;52.532;6.426;2022-08-19T03:59:59;13.90;;;12.50;;
63005;SDS011;53704;52.532;6.426;2022-08-19T04:02:25;14.05;;;12.70;;
63005;SDS011;53704;52.532;6.426;2022-08-19T04:04:52;14.45;;;12.63;;
63005;SDS011;53704;52.532;6.426;2022-08-19T04:07:19;13.60;;;12.20;;
63005;SDS011;53704;52.532;6.426;2022-08-19T04:09:46;13.48;;;12.23;;
63005;SDS011;53704;52.532;6.426;2022-08-19T04:12:12;17.38;;;13.45;;
63005;SDS011;53704;52.532;6.426;2022-08-19T04:14:38;14.32;;;12.90;;
63005;SDS011;53704;52.532;6.426;2022-08-19T04:17:04;12.52;;;11.13;;
63005;SDS011;53704;52.532;6.426;2022-08-19T04:19:30;11.98;;;10.98;;
63005;SDS011;53704;52.532;6.426;2022-08-19T04:21:56;12.35;;;11.13;;
63005;SDS011;53704;52.532;6.426;2022-08-19T04:24:23;13.60;;;12.43;;
63005;SDS011;53704;52.532;6.426;2022-08-19T04:26:48;12.57;;;11.38;;
63005;SDS011;53704;52.532;6.426;2022-08-19T04:29:15;11.23;;;10.23;;
63005;SDS011;53704;52.532;6.426;2022-08-19T04:31:44;11.82;;;10.73;;
63005;SDS011;53704;52.532;6.426;2022-08-19T04:34:10;12.45;;;11.25;;
63005;SDS011;53704;52.532;6.426;2022-08-19T04:36:38;11.05;;;10.27;;
63005;SDS011;53704;52.532;6.426;2022-08-19T04:39:08;10.73;;;9.55;;
63005;SDS011;53704;52.532;6.426;2022-08-19T04:41:35;12.65;;;11.38;;
63005;SDS011;53704;52.532;6.426;2022-08-19T04:44:19;17.77;;;10.33;;
63005;SDS011;53704;52.532;6.426;2022-08-19T04:46:46;11.93;;;10.63;;
63005;SDS011;53704;52.532;6.426;2022-08-19T04:49:13;11.18;;;10.05;;
63005;SDS011;53704;52.532;6.426;2022-08-19T04:51:40;10.05;;;9.15;;
63005;SDS011;53704;52.532;6.426;2022-08-19T04:54:07;10.30;;;9.43;;
63005;SDS011;53704;52.532;6.426;2022-08-19T04:56:33;11.90;;;10.93;;
63005;SDS011;53704;52.532;6.426;2022-08-19T04:58:59;10.20;;;9.43;;
63005;SDS011;53704;52.532;6.426;2022-08-19T05:01:28;10.80;;;9.70;;
63005;SDS011;53704;52.532;6.426;2022-08-19T05:03:54;9.55;;;8.88;;
63005;SDS011;53704;52.532;6.426;2022-08-19T05:06:21;10.05;;;9.20;;
63005;SDS011;53704;52.532;6.426;2022-08-19T05:08:48;10.45;;;9.65;;
63005;SDS011;53704;52.532;6.426;2022-08-19T05:11:27;15.27;;;9.82;;
63005;SDS011;53704;52.532;6.426;2022-08-19T05:13:56;11.23;;;9.15;;
63005;SDS011;53704;52.532;6.426;2022-08-19T05:16:23;12.38;;;9.35;;
63005;SDS011;53704;52.532;6.426;2022-08-19T05:18:50;14.15;;;9.68;;
63005;SDS011;53704;52.532;6.426;2022-08-19T05:21:34;10.25;;;9.35;;
63005;SDS011;53704;52.532;6.426;2022-08-19T05:24:19;13.02;;;10.02;;
63005;SDS011;53704;52.532;6.426;2022-08-19T05:26:47;13.35;;;9.95;;
63005;SDS011;53704;52.532;6.426;2022-08-19T05:29:14;12.15;;;10.93;;
63005;SDS011;53704;52.532;6.426;2022-08-19T05:31:41;11.82;;;10.88;;
63005;SDS011;53704;52.532;6.426;2022-08-19T05:34:07;13.23;;;10.52;;
63005;SDS011;53704;52.532;6.426;2022-08-19T05:36:33;14.27;;;11.85;;
63005;SDS011;53704;52.532;6.426;2022-08-19T05:39:02;14.10;;;12.55;;
63005;SDS011;53704;52.532;6.426;2022-08-19T05:41:28;14.00;;;12.70;;
63005;SDS011;53704;52.532;6.426;2022-08-19T05:44:00;18.52;;;13.15;;
63005;SDS011;53704;52.532;6.426;2022-08-19T05:46:27;18.13;;;14.43;;
63005;SDS011;53704;52.532;6.426;2022-08-19T05:48:53;20.55;;;15.93;;
63005;SDS011;53704;52.532;6.426;2022-08-19T05:51:21;26.00;;;18.58;;
63005;SDS011;53704;52.532;6.426;2022-08-19T05:53:48;21.55;;;17.52;;
63005;SDS011;53704;52.532;6.426;2022-08-19T05:56:15;22.70;;;18.67;;
63005;SDS011;53704;52.532;6.426;2022-08-19T05:58:42;20.17;;;17.95;;
63005;SDS011;53704;52.532;6.426;2022-08-19T06:01:11;29.02;;;20.85;;
63005;SDS011;53704;52.532;6.426;2022-08-19T06:03:38;30.00;;;21.63;;
63005;SDS011;53704;52.532;6.426;2022-08-19T06:06:05;32.15;;;23.30;;
63005;SDS011;53704;52.532;6.426;2022-08-19T06:08:32;31.33;;;22.02;;
63005;SDS011;53704;52.532;6.426;2022-08-19T06:10:58;33.53;;;23.23;;
63005;SDS011;53704;52.532;6.426;2022-08-19T06:13:47;30.10;;;22.17;;
63005;SDS011;53704;52.532;6.426;2022-08-19T06:16:18;43.25;;;25.90;;
63005;SDS011;53704;52.532;6.426;2022-08-19T06:18:47;33.78;;;24.30;;
63005;SDS011;53704;52.532;6.426;2022-08-19T06:21:18;33.55;;;22.33;;
63005;SDS011;53704;52.532;6.426;2022-08-19T06:23:45;36.95;;;23.58;;
63005;SDS011;53704;52.532;6.426;2022-08-19T06:26:12;33.97;;;25.27;;
63005;SDS011;53704;52.532;6.426;2022-08-19T06:28:38;37.45;;;24.27;;
63005;SDS011;53704;52.532;6.426;2022-08-19T06:31:22;36.42;;;24.45;;
63005;SDS011;53704;52.532;6.426;2022-08-19T06:33:50;38.40;;;22.83;;
63005;SDS011;53704;52.532;6.426;2022-08-19T06:36:21;36.88;;;24.30;;
63005;SDS011;53704;52.532;6.426;2022-08-19T06:38:53;38.67;;;25.83;;
63005;SDS011;53704;52.532;6.426;2022-08-19T06:41:19;42.13;;;25.30;;
63005;SDS011;53704;52.532;6.426;2022-08-19T06:43:44;35.38;;;23.83;;
63005;SDS011;53704;52.532;6.426;2022-08-19T06:46:14;40.53;;;24.20;;
63005;SDS011;53704;52.532;6.426;2022-08-19T06:48:41;39.97;;;25.60;;
63005;SDS011;53704;52.532;6.426;2022-08-19T06:51:07;37.78;;;24.50;;
63005;SDS011;53704;52.532;6.426;2022-08-19T06:53:32;35.70;;;22.50;;
63005;SDS011;53704;52.532;6.426;2022-08-19T06:55:58;34.97;;;23.65;;
63005;SDS011;53704;52.532;6.426;2022-08-19T06:58:30;38.22;;;23.73;;
63005;SDS011;53704;52.532;6.426;2022-08-19T07:01:01;30.13;;;23.83;;
63005;SDS011;53704;52.532;6.426;2022-08-19T07:03:29;32.72;;;23.17;;
63005;SDS011;53704;52.532;6.426;2022-08-19T07:05:56;24.90;;;21.92;;
63005;SDS011;53704;52.532;6.426;2022-08-19T07:08:23;27.25;;;21.20;;
63005;SDS011;53704;52.532;6.426;2022-08-19T07:10:51;28.10;;;22.17;;
63005;SDS011;53704;52.532;6.426;2022-08-19T07:13:17;28.85;;;21.90;;
63005;SDS011;53704;52.532;6.426;2022-08-19T07:15:44;26.08;;;19.48;;
63005;SDS011;53704;52.532;6.426;2022-08-19T07:18:11;24.27;;;20.02;;
63005;SDS011;53704;52.532;6.426;2022-08-19T07:20:37;28.02;;;19.55;;
63005;SDS011;53704;52.532;6.426;2022-08-19T07:23:03;24.17;;;19.27;;
63005;SDS011;53704;52.532;6.426;2022-08-19T07:25:29;24.88;;;19.38;;
63005;SDS011;53704;52.532;6.426;2022-08-19T07:27:54;30.38;;;18.15;;
63005;SDS011;53704;52.532;6.426;2022-08-19T07:30:20;24.20;;;20.25;;
63005;SDS011;53704;52.532;6.426;2022-08-19T07:32:47;20.88;;;18.25;;
63005;SDS011;53704;52.532;6.426;2022-08-19T07:35:13;20.13;;;17.90;;
63005;SDS011;53704;52.532;6.426;2022-08-19T07:37:38;21.38;;;18.92;;
63005;SDS011;53704;52.532;6.426;2022-08-19T07:40:09;18.80;;;16.83;;
63005;SDS011;53704;52.532;6.426;2022-08-19T07:42:34;20.30;;;17.40;;
63005;SDS011;53704;52.532;6.426;2022-08-19T07:45:00;19.13;;;16.50;;
63005;SDS011;53704;52.532;6.426;2022-08-19T07:47:26;20.95;;;18.08;;
63005;SDS011;53704;52.532;6.426;2022-08-19T07:49:52;21.10;;;18.50;;
63005;SDS011;53704;52.532;6.426;2022-08-19T07:52:17;25.33;;;18.88;;
63005;SDS011;53704;52.532;6.426;2022-08-19T07:54:43;21.15;;;18.38;;
63005;SDS011;53704;52.532;6.426;2022-08-19T07:57:08;21.02;;;17.40;;
63005;SDS011;53704;52.532;6.426;2022-08-19T07:59:34;22.67;;;16.27;;
63005;SDS011;53704;52.532;6.426;2022-08-19T08:02:00;18.55;;;16.42;;
63005;SDS011;53704;52.532;6.426;2022-08-19T08:04:27;17.88;;;15.45;;
63005;SDS011;53704;52.532;6.426;2022-08-19T08:07:12;19.27;;;16.48;;
63005;SDS011;53704;52.532;6.426;2022-08-19T08:09:56;16.70;;;14.90;;
63005;SDS011;53704;52.532;6.426;2022-08-19T08:12:24;18.40;;;14.13;;
63005;SDS011;53704;52.532;6.426;2022-08-19T08:14:54;17.20;;;14.13;;
63005;SDS011;53704;52.532;6.426;2022-08-19T08:17:22;16.42;;;13.07;;
63005;SDS011;53704;52.532;6.426;2022-08-19T08:19:49;14.68;;;13.18;;
63005;SDS011;53704;52.532;6.426;2022-08-19T08:22:16;17.15;;;15.30;;
63005;SDS011;53704;52.532;6.426;2022-08-19T08:25:21;16.63;;;15.00;;
63005;SDS011;53704;52.532;6.426;2022-08-19T08:27:48;17.15;;;14.73;;
63005;SDS011;53704;52.532;6.426;2022-08-19T08:30:21;17.85;;;14.38;;
63005;SDS011;53704;52.532;6.426;2022-08-19T08:32:48;20.60;;;16.48;;
63005;SDS011;53704;52.532;6.426;2022-08-19T08:35:16;20.55;;;14.75;;
63005;SDS011;53704;52.532;6.426;2022-08-19T08:37:44;18.15;;;14.85;;
63005;SDS011;53704;52.532;6.426;2022-08-19T08:40:20;15.23;;;13.40;;
63005;SDS011;53704;52.532;6.426;2022-08-19T08:42:59;17.50;;;15.60;;
63005;SDS011;53704;52.532;6.426;2022-08-19T08:46:04;14.63;;;12.63;;
63005;SDS011;53704;52.532;6.426;2022-08-19T08:51:31;13.13;;;11.85;;
63005;SDS011;53704;52.532;6.426;2022-08-19T08:54:07;16.90;;;14.52;;
63005;SDS011;53704;52.532;6.426;2022-08-19T08:56:37;11.45;;;10.40;;
63005;SDS011;53704;52.532;6.426;2022-08-19T08:59:16;13.70;;;11.70;;
63005;SDS011;53704;52.532;6.426;2022-08-19T09:01:47;17.33;;;14.18;;
63005;SDS011;53704;52.532;6.426;2022-08-19T09:04:13;13.98;;;11.02;;
63005;SDS011;53704;52.532;6.426;2022-08-19T09:06:46;13.05;;;11.50;;
63005;SDS011;53704;52.532;6.426;2022-08-19T09:09:25;12.40;;;11.15;;
63005;SDS011;53704;52.532;6.426;2022-08-19T09:14:54;14.93;;;13.13;;
63005;SDS011;53704;52.532;6.426;2022-08-19T09:17:25;17.25;;;12.20;;
63005;SDS011;53704;52.532;6.426;2022-08-19T09:20:22;13.88;;;11.80;;
63005;SDS011;53704;52.532;6.426;2022-08-19T09:22:48;18.63;;;11.68;;
63005;SDS011;53704;52.532;6.426;2022-08-19T09:25:18;11.93;;;10.30;;
63005;SDS011;53704;52.532;6.426;2022-08-19T09:27:47;10.45;;;9.60;;
63005;SDS011;53704;52.532;6.426;2022-08-19T09:30:16;11.00;;;10.00;;
63005;SDS011;53704;52.532;6.426;2022-08-19T09:32:44;12.02;;;11.02;;
63005;SDS011;53704;52.532;6.426;2022-08-19T09:35:10;12.82;;;10.55;;
63005;SDS011;53704;52.532;6.426;2022-08-19T09:37:37;11.30;;;10.40;;
63005;SDS011;53704;52.532;6.426;2022-08-19T09:40:03;9.88;;;8.88;;
63005;SDS011;53704;52.532;6.426;2022-08-19T09:42:30;10.30;;;9.60;;
63005;SDS011;53704;52.532;6.426;2022-08-19T09:44:55;10.15;;;9.27;;
63005;SDS011;53704;52.532;6.426;2022-08-19T09:47:20;10.43;;;9.50;;
63005;SDS011;53704;52.532;6.426;2022-08-19T09:49:46;11.00;;;7.57;;
63005;SDS011;53704;52.532;6.426;2022-08-19T09:52:15;9.18;;;7.95;;
63005;SDS011;53704;52.532;6.426;2022-08-19T09:54:41;10.43;;;9.43;;
63005;SDS011;53704;52.532;6.426;2022-08-19T09:57:06;12.80;;;10.32;;
63005;SDS011;53704;52.532;6.426;2022-08-19T09:59:32;8.65;;;6.65;;
63005;SDS011;53704;52.532;6.426;2022-08-19T10:01:57;9.35;;;8.50;;
63005;SDS011;53704;52.532;6.426;2022-08-19T10:04:23;7.47;;;6.75;;
63005;SDS011;53704;52.532;6.426;2022-08-19T10:07:08;11.45;;;9.35;;
63005;SDS011;53704;52.532;6.426;2022-08-19T10:09:34;10.00;;;9.05;;
63005;SDS011;53704;52.532;6.426;2022-08-19T10:11:59;8.20;;;7.47;;
63005;SDS011;53704;52.532;6.426;2022-08-19T10:14:26;10.70;;;9.65;;
63005;SDS011;53704;52.532;6.426;2022-08-19T10:16:52;13.02;;;7.72;;
63005;SDS011;53704;52.532;6.426;2022-08-19T10:19:17;6.40;;;5.90;;
63005;SDS011;53704;52.532;6.426;2022-08-19T10:21:45;9.10;;;7.47;;
63005;SDS011;53704;52.532;6.426;2022-08-19T10:24:10;6.50;;;6.10;;
63005;SDS011;53704;52.532;6.426;2022-08-19T10:26:37;10.35;;;8.63;;
63005;SDS011;53704;52.532;6.426;2022-08-19T10:29:04;12.60;;;9.73;;
63005;SDS011;53704;52.532;6.426;2022-08-19T10:31:31;11.60;;;10.48;;
63005;SDS011;53704;52.532;6.426;2022-08-19T10:33:57;11.55;;;10.38;;
63005;SDS011;53704;52.532;6.426;2022-08-19T10:36:25;9.38;;;8.35;;
63005;SDS011;53704;52.532;6.426;2022-08-19T10:38:54;8.13;;;7.63;;
63005;SDS011;53704;52.532;6.426;2022-08-19T10:41:24;5.35;;;4.40;;
63005;SDS011;53704;52.532;6.426;2022-08-19T10:43:52;10.35;;;9.38;;
63005;SDS011;53704;52.532;6.426;2022-08-19T10:46:20;8.88;;;8.20;;
63005;SDS011;53704;52.532;6.426;2022-08-19T10:48:47;7.50;;;6.90;;
63005;SDS011;53704;52.532;6.426;2022-08-19T10:51:14;8.80;;;7.93;;
63005;SDS011;53704;52.532;6.426;2022-08-19T10:53:58;9.55;;;8.60;;
63005;SDS011;53704;52.532;6.426;2022-08-19T10:56:24;19.30;;;10.43;;
63005;SDS011;53704;52.532;6.426;2022-08-19T10:59:09;16.90;;;13.80;;
63005;SDS011;53704;52.532;6.426;2022-08-19T11:01:36;18.75;;;12.63;;
63005;SDS011;53704;52.532;6.426;2022-08-19T11:04:02;19.15;;;12.02;;
63005;SDS011;53704;52.532;6.426;2022-08-19T11:06:31;15.75;;;12.07;;
63005;SDS011;53704;52.532;6.426;2022-08-19T11:08:57;16.90;;;12.15;;
63005;SDS011;53704;52.532;6.426;2022-08-19T11:11:23;17.95;;;13.95;;
63005;SDS011;53704;52.532;6.426;2022-08-19T11:13:48;23.70;;;15.05;;
63005;SDS011;53704;52.532;6.426;2022-08-19T11:16:16;23.05;;;14.48;;
63005;SDS011;53704;52.532;6.426;2022-08-19T11:18:45;22.48;;;14.90;;
63005;SDS011;53704;52.532;6.426;2022-08-19T11:21:24;23.30;;;15.85;;
63005;SDS011;53704;52.532;6.426;2022-08-19T11:23:52;23.52;;;15.93;;
63005;SDS011;53704;52.532;6.426;2022-08-19T11:26:20;17.80;;;15.93;;
63005;SDS011;53704;52.532;6.426;2022-08-19T11:28:46;22.92;;;15.75;;
63005;SDS011;53704;52.532;6.426;2022-08-19T11:31:13;32.75;;;21.40;;
63005;SDS011;53704;52.532;6.426;2022-08-19T11:33:40;20.50;;;16.17;;
63005;SDS011;53704;52.532;6.426;2022-08-19T11:36:06;23.13;;;16.77;;
63005;SDS011;53704;52.532;6.426;2022-08-19T11:38:32;26.13;;;17.48;;
63005;SDS011;53704;52.532;6.426;2022-08-19T11:41:00;20.65;;;15.93;;
63005;SDS011;53704;52.532;6.426;2022-08-19T11:43:29;22.60;;;18.05;;
63005;SDS011;53704;52.532;6.426;2022-08-19T11:45:56;27.20;;;20.95;;
63005;SDS011;53704;52.532;6.426;2022-08-19T11:48:22;23.48;;;17.15;;
63005;SDS011;53704;52.532;6.426;2022-08-19T11:50:48;19.83;;;15.65;;
63005;SDS011;53704;52.532;6.426;2022-08-19T11:53:18;22.80;;;15.38;;
63005;SDS011;53704;52.532;6.426;2022-08-19T11:55:45;16.42;;;13.48;;
63005;SDS011;53704;52.532;6.426;2022-08-19T11:58:12;18.40;;;14.70;;
63005;SDS011;53704;52.532;6.426;2022-08-19T12:00:38;20.40;;;16.80;;
63005;SDS011;53704;52.532;6.426;2022-08-19T12:03:05;22.17;;;19.88;;
63005;SDS011;53704;52.532;6.426;2022-08-19T12:05:31;20.83;;;17.00;;
63005;SDS011;53704;52.532;6.426;2022-08-19T12:07:56;17.98;;;14.45;;
63005;SDS011;53704;52.532;6.426;2022-08-19T12:10:22;17.38;;;13.38;;
63005;SDS011;53704;52.532;6.426;2022-08-19T12:12:48;19.60;;;15.95;;
63005;SDS011;53704;52.532;6.426;2022-08-19T12:15:13;25.90;;;19.10;;
63005;SDS011;53704;52.532;6.426;2022-08-19T12:17:40;17.98;;;14.15;;
63005;SDS011;53704;52.532;6.426;2022-08-19T12:20:07;18.13;;;16.30;;
63005;SDS011;53704;52.532;6.426;2022-08-19T12:22:34;18.55;;;16.08;;
63005;SDS011;53704;52.532;6.426;2022-08-19T12:25:00;18.95;;;15.95;;
63005;SDS011;53704;52.532;6.426;2022-08-19T12:27:26;18.13;;;14.30;;
63005;SDS011;53704;52.532;6.426;2022-08-19T12:29:51;19.85;;;14.65;;
63005;SDS011;53704;52.532;6.426;2022-08-19T12:32:17;21.75;;;17.60;;
63005;SDS011;53704;52.532;6.426;2022-08-19T12:34:42;27.13;;;15.10;;
63005;SDS011;53704;52.532;6.426;2022-08-19T12:37:08;15.60;;;12.18;;
63005;SDS011;53704;52.532;6.426;2022-08-19T12:39:42;16.10;;;12.00;;
63005;SDS011;53704;52.532;6.426;2022-08-19T12:42:09;21.98;;;12.93;;
63005;SDS011;53704;52.532;6.426;2022-08-19T12:44:37;12.32;;;10.27;;
63005;SDS011;53704;52.532;6.426;2022-08-19T12:47:04;13.30;;;9.50;;
63005;SDS011;53704;52.532;6.426;2022-08-19T12:49:31;17.55;;;11.63;;
63005;SDS011;53704;52.532;6.426;2022-08-19T12:51:59;27.88;;;14.65;;
63005;SDS011;53704;52.532;6.426;2022-08-19T12:54:25;16.88;;;12.98;;
63005;SDS011;53704;52.532;6.426;2022-08-19T12:56:51;17.92;;;12.35;;
63005;SDS011;53704;52.532;6.426;2022-08-19T12:59:16;17.15;;;12.32;;
63005;SDS011;53704;52.532;6.426;2022-08-19T13:01:43;17.67;;;12.90;;
63005;SDS011;53704;52.532;6.426;2022-08-19T13:04:09;15.90;;;12.20;;
63005;SDS011;53704;52.532;6.426;2022-08-19T13:06:35;18.10;;;13.57;;
63005;SDS011;53704;52.532;6.426;2022-08-19T13:09:01;21.00;;;16.00;;
63005;SDS011;53704;52.532;6.426;2022-08-19T13:11:27;26.08;;;17.23;;
63005;SDS011;53704;52.532;6.426;2022-08-19T13:13:57;14.38;;;11.30;;
63005;SDS011;53704;52.532;6.426;2022-08-19T13:16:23;19.45;;;13.88;;
63005;SDS011;53704;52.532;6.426;2022-08-19T13:18:49;15.23;;;13.05;;
63005;SDS011;53704;52.532;6.426;2022-08-19T13:21:19;13.90;;;11.15;;
63005;SDS011;53704;52.532;6.426;2022-08-19T13:23:46;16.20;;;11.90;;
63005;SDS011;53704;52.532;6.426;2022-08-19T13:26:12;18.65;;;12.68;;
63005;SDS011;53704;52.532;6.426;2022-08-19T13:28:39;20.77;;;12.63;;
63005;SDS011;53704;52.532;6.426;2022-08-19T13:31:24;12.48;;;10.45;;
63005;SDS011;53704;52.532;6.426;2022-08-19T13:34:10;13.40;;;9.73;;
63005;SDS011;53704;52.532;6.426;2022-08-19T13:36:36;10.35;;;8.52;;
63005;SDS011;53704;52.532;6.426;2022-08-19T13:39:02;9.90;;;8.98;;
63005;SDS011;53704;52.532;6.426;2022-08-19T13:41:29;16.13;;;8.15;;
63005;SDS011;53704;52.532;6.426;2022-08-19T13:43:55;8.43;;;7.65;;
63005;SDS011;53704;52.532;6.426;2022-08-19T13:46:20;8.80;;;7.90;;
63005;SDS011;53704;52.532;6.426;2022-08-19T13:48:46;6.40;;;5.68;;
63005;SDS011;53704;52.532;6.426;2022-08-19T13:51:16;6.90;;;6.18;;
63005;SDS011;53704;52.532;6.426;2022-08-19T13:53:42;5.10;;;4.60;;
63005;SDS011;53704;52.532;6.426;2022-08-19T13:56:10;5.13;;;4.70;;
63005;SDS011;53704;52.532;6.426;2022-08-19T13:58:38;4.53;;;3.80;;
63005;SDS011;53704;52.532;6.426;2022-08-19T14:01:04;7.32;;;4.43;;
63005;SDS011;53704;52.532;6.426;2022-08-19T14:03:30;7.10;;;4.22;;
63005;SDS011;53704;52.532;6.426;2022-08-19T14:05:57;3.47;;;3.28;;
63005;SDS011;53704;52.532;6.426;2022-08-19T14:08:23;10.05;;;4.47;;
63005;SDS011;53704;52.532;6.426;2022-08-19T14:10:49;9.00;;;5.00;;
63005;SDS011;53704;52.532;6.426;2022-08-19T14:13:19;5.28;;;4.80;;
63005;SDS011;53704;52.532;6.426;2022-08-19T14:15:47;9.88;;;5.88;;
63005;SDS011;53704;52.532;6.426;2022-08-19T14:18:13;5.85;;;5.38;;
63005;SDS011;53704;52.532;6.426;2022-08-19T14:20:39;8.32;;;7.45;;
63005;SDS011;53704;52.532;6.426;2022-08-19T14:23:05;10.57;;;6.65;;
63005;SDS011;53704;52.532;6.426;2022-08-19T14:25:31;9.93;;;6.47;;
63005;SDS011;53704;52.532;6.426;2022-08-19T14:27:57;10.38;;;9.30;;
63005;SDS011;53704;52.532;6.426;2022-08-19T14:30:28;9.38;;;8.13;;
63005;SDS011;53704;52.532;6.426;2022-08-19T14:35:24;14.00;;;8.25;;
63005;SDS011;53704;52.532;6.426;2022-08-19T14:37:51;8.95;;;7.75;;
63005;SDS011;53704;52.532;6.426;2022-08-19T14:40:21;15.98;;;11.18;;